Detall de PIREP

Printer-friendly versionPDF version

[2008/12/21 20:56:00]
Flight IATA:CT0001
Pilot Number:041
Company ICAO:CAT
Aircraft Type:BE20/A
PAX:3
Departing Airport: LEGE
Destination Airport: LEBL
Alternate Airport:LELL
Online: VATSIM
Route:BGR2Z BISBA1S
Flight Level:FL070
No Slew and time accel
No pause
Crash detect
Detect pilot in Cockpit between each 30 and 45 minutes
20:56 Zero fuel Weight: 9527 Lbs, Fuel Weight: 2158 Lbs
20:56 VATSIM:LEGE 212030Z 00000KT CAVOK 04/03 Q1029
20:56 VATSIM:LEBL 212000Z 31013KT CAVOK 08/03 Q1030 NOSIG
20:56 VOICE CATALONIAN
20:58 Parking Brakes off
21:06 Take-off
21:06 Take off Weight: 11634 Lbs
21:06 Wind: 022º @ 002 Knots Heading: 016º
21:06 POS N41º 54´ 33´´ E002º 45´ 50´´
21:06 Gear Up: 147 Knots
21:06 Flaps:1 at 147 Knots
21:07 Flaps:0 at 159 Knots
21:12 TOC
21:12 Fuel Weight: 2013 Lb
21:13 TOD
21:13 Fuel Weight: 2004 Lb
21:13 TOC
21:13 Fuel Weight: 1998 Lb
21:21
Wind:048º@004 Knots Heading: 243º Ground Speed: 221 Knots Altitude 7470 ft
21:30 TOD
21:30 Fuel Weight: 1824 Lb
21:36 Wind:291º@012 Knots Heading: 211º Ground Speed: 187 Knots Altitude 3008 ft
21:39 Flaps:1 at 176 Knots
21:40 Gear Down: 161 Knots
21:43 TouchDown:Rate -111 ft/min Speed: 122 Knots
21:43 Flaps:0 at 93 Knots
21:43 VATSIM:LEBL 212130Z 31015KT CAVOK 07/02 Q1030 NOSIG
21:43 Land
21:43 Wind:312º@012 Knots
21:43 Heading: 020º
21:43 Flight Duration: 00:37
21:43 Landing Weight: 11274 Lbs
21:43 POS N41º 17´ 56´´ E002º 05´ 23´´
21:48 Parking brakes on
21:48 Block to Block Duration: 00:50
21:48 Final Fuel: 1721 Lbls
21:48 Spent Fuel: 436 Lbls
21:48 Flight Length: 128 NM
21:48 TOD Land Length: 41 NM

Exportar CSV

Powered by Drupal - Modified by Danger4k